sensor_id;sensor_type;location;lat;lon;timestamp;P1;durP1;ratioP1;P2;durP2;ratioP2
72408;SDS011;60402;48.082;11.628;2023-05-07T00:02:17;7.43;;;4.05;;
72408;SDS011;60402;48.082;11.628;2023-05-07T00:05:03;7.35;;;4.22;;
72408;SDS011;60402;48.082;11.628;2023-05-07T00:07:49;6.47;;;3.97;;
72408;SDS011;60402;48.082;11.628;2023-05-07T00:10:35;6.50;;;3.72;;
72408;SDS011;60402;48.082;11.628;2023-05-07T00:13:21;6.63;;;3.85;;
72408;SDS011;60402;48.082;11.628;2023-05-07T00:16:06;7.55;;;4.78;;
72408;SDS011;60402;48.082;11.628;2023-05-07T00:18:52;7.20;;;4.03;;
72408;SDS011;60402;48.082;11.628;2023-05-07T00:21:38;8.65;;;4.05;;
72408;SDS011;60402;48.082;11.628;2023-05-07T00:24:23;6.68;;;4.38;;
72408;SDS011;60402;48.082;11.628;2023-05-07T00:27:09;7.28;;;4.10;;
72408;SDS011;60402;48.082;11.628;2023-05-07T00:29:55;7.97;;;4.35;;
72408;SDS011;60402;48.082;11.628;2023-05-07T00:32:41;7.57;;;4.40;;
72408;SDS011;60402;48.082;11.628;2023-05-07T00:35:27;8.05;;;4.28;;
72408;SDS011;60402;48.082;11.628;2023-05-07T00:38:16;7.47;;;3.72;;
72408;SDS011;60402;48.082;11.628;2023-05-07T00:41:02;7.45;;;4.07;;
72408;SDS011;60402;48.082;11.628;2023-05-07T00:43:47;5.80;;;3.72;;
72408;SDS011;60402;48.082;11.628;2023-05-07T00:46:33;7.57;;;4.18;;
72408;SDS011;60402;48.082;11.628;2023-05-07T00:49:19;6.82;;;3.90;;
72408;SDS011;60402;48.082;11.628;2023-05-07T00:52:05;7.15;;;3.78;;
72408;SDS011;60402;48.082;11.628;2023-05-07T00:54:53;6.57;;;3.72;;
72408;SDS011;60402;48.082;11.628;2023-05-07T00:57:39;6.60;;;4.00;;
72408;SDS011;60402;48.082;11.628;2023-05-07T01:00:26;7.30;;;4.07;;
72408;SDS011;60402;48.082;11.628;2023-05-07T01:03:12;7.22;;;3.80;;
72408;SDS011;60402;48.082;11.628;2023-05-07T01:05:57;12.95;;;4.10;;
72408;SDS011;60402;48.082;11.628;2023-05-07T01:08:45;7.10;;;3.85;;
72408;SDS011;60402;48.082;11.628;2023-05-07T01:11:31;7.03;;;3.70;;
72408;SDS011;60402;48.082;11.628;2023-05-07T01:14:17;7.22;;;4.45;;
72408;SDS011;60402;48.082;11.628;2023-05-07T01:17:03;7.10;;;4.10;;
72408;SDS011;60402;48.082;11.628;2023-05-07T01:19:49;6.95;;;3.72;;
72408;SDS011;60402;48.082;11.628;2023-05-07T01:22:36;7.50;;;4.38;;
72408;SDS011;60402;48.082;11.628;2023-05-07T01:25:23;6.82;;;3.85;;
72408;SDS011;60402;48.082;11.628;2023-05-07T01:28:09;7.60;;;4.00;;
72408;SDS011;60402;48.082;11.628;2023-05-07T01:30:58;7.20;;;3.88;;
72408;SDS011;60402;48.082;11.628;2023-05-07T01:33:47;7.03;;;3.80;;
72408;SDS011;60402;48.082;11.628;2023-05-07T01:36:35;7.35;;;3.70;;
72408;SDS011;60402;48.082;11.628;2023-05-07T01:39:27;8.63;;;3.90;;
72408;SDS011;60402;48.082;11.628;2023-05-07T01:42:14;8.48;;;4.40;;
72408;SDS011;60402;48.082;11.628;2023-05-07T01:45:00;8.32;;;4.10;;
72408;SDS011;60402;48.082;11.628;2023-05-07T01:47:46;6.28;;;3.70;;
72408;SDS011;60402;48.082;11.628;2023-05-07T01:50:32;6.88;;;4.10;;
72408;SDS011;60402;48.082;11.628;2023-05-07T01:53:18;7.05;;;3.83;;
72408;SDS011;60402;48.082;11.628;2023-05-07T01:56:04;7.97;;;4.18;;
72408;SDS011;60402;48.082;11.628;2023-05-07T01:58:50;6.35;;;4.10;;
72408;SDS011;60402;48.082;11.628;2023-05-07T02:01:37;6.22;;;3.85;;
72408;SDS011;60402;48.082;11.628;2023-05-07T02:04:22;9.23;;;3.85;;
72408;SDS011;60402;48.082;11.628;2023-05-07T02:07:08;8.13;;;4.30;;
72408;SDS011;60402;48.082;11.628;2023-05-07T02:09:54;6.93;;;3.67;;
72408;SDS011;60402;48.082;11.628;2023-05-07T02:12:40;8.00;;;3.90;;
72408;SDS011;60402;48.082;11.628;2023-05-07T02:15:26;7.00;;;3.75;;
72408;SDS011;60402;48.082;11.628;2023-05-07T02:18:12;7.28;;;4.18;;
72408;SDS011;60402;48.082;11.628;2023-05-07T02:20:57;6.07;;;3.92;;
72408;SDS011;60402;48.082;11.628;2023-05-07T02:23:43;6.60;;;4.32;;
72408;SDS011;60402;48.082;11.628;2023-05-07T02:26:28;6.93;;;3.83;;
72408;SDS011;60402;48.082;11.628;2023-05-07T02:29:14;8.30;;;3.60;;
72408;SDS011;60402;48.082;11.628;2023-05-07T02:32:00;7.70;;;4.13;;
72408;SDS011;60402;48.082;11.628;2023-05-07T02:34:45;7.20;;;3.58;;
72408;SDS011;60402;48.082;11.628;2023-05-07T02:37:31;9.02;;;3.83;;
72408;SDS011;60402;48.082;11.628;2023-05-07T02:40:17;7.25;;;4.20;;
72408;SDS011;60402;48.082;11.628;2023-05-07T02:43:02;6.53;;;3.45;;
72408;SDS011;60402;48.082;11.628;2023-05-07T02:45:48;7.20;;;3.35;;
72408;SDS011;60402;48.082;11.628;2023-05-07T02:48:34;5.95;;;3.67;;
72408;SDS011;60402;48.082;11.628;2023-05-07T02:51:20;5.90;;;3.60;;
72408;SDS011;60402;48.082;11.628;2023-05-07T02:54:07;6.32;;;3.45;;
72408;SDS011;60402;48.082;11.628;2023-05-07T02:56:52;7.30;;;3.40;;
72408;SDS011;60402;48.082;11.628;2023-05-07T02:59:38;6.30;;;3.50;;
72408;SDS011;60402;48.082;11.628;2023-05-07T03:02:24;7.07;;;4.05;;
72408;SDS011;60402;48.082;11.628;2023-05-07T03:05:10;7.28;;;3.65;;
72408;SDS011;60402;48.082;11.628;2023-05-07T03:07:56;6.03;;;3.38;;
72408;SDS011;60402;48.082;11.628;2023-05-07T03:10:41;7.38;;;3.00;;
72408;SDS011;60402;48.082;11.628;2023-05-07T03:13:27;6.07;;;3.30;;
72408;SDS011;60402;48.082;11.628;2023-05-07T03:16:13;6.50;;;3.60;;
72408;SDS011;60402;48.082;11.628;2023-05-07T03:18:58;6.85;;;4.22;;
72408;SDS011;60402;48.082;11.628;2023-05-07T03:21:44;6.78;;;3.70;;
72408;SDS011;60402;48.082;11.628;2023-05-07T03:24:30;5.93;;;3.50;;
72408;SDS011;60402;48.082;11.628;2023-05-07T03:27:16;5.80;;;3.30;;
72408;SDS011;60402;48.082;11.628;2023-05-07T03:30:01;7.40;;;3.92;;
72408;SDS011;60402;48.082;11.628;2023-05-07T03:32:49;6.68;;;3.67;;
72408;SDS011;60402;48.082;11.628;2023-05-07T03:35:35;7.50;;;3.60;;
72408;SDS011;60402;48.082;11.628;2023-05-07T03:38:21;6.68;;;3.50;;
72408;SDS011;60402;48.082;11.628;2023-05-07T03:41:06;7.13;;;3.50;;
72408;SDS011;60402;48.082;11.628;2023-05-07T03:43:52;6.55;;;3.55;;
72408;SDS011;60402;48.082;11.628;2023-05-07T03:46:38;6.30;;;3.60;;
72408;SDS011;60402;48.082;11.628;2023-05-07T03:49:23;5.30;;;3.25;;
72408;SDS011;60402;48.082;11.628;2023-05-07T03:52:09;6.03;;;3.40;;
72408;SDS011;60402;48.082;11.628;2023-05-07T03:54:54;7.03;;;3.47;;
72408;SDS011;60402;48.082;11.628;2023-05-07T03:57:40;6.10;;;3.63;;
72408;SDS011;60402;48.082;11.628;2023-05-07T04:00:26;6.45;;;3.20;;
72408;SDS011;60402;48.082;11.628;2023-05-07T04:03:11;7.18;;;3.40;;
72408;SDS011;60402;48.082;11.628;2023-05-07T04:05:57;5.07;;;3.10;;
72408;SDS011;60402;48.082;11.628;2023-05-07T04:08:43;5.70;;;3.17;;
72408;SDS011;60402;48.082;11.628;2023-05-07T04:11:28;5.63;;;3.40;;
72408;SDS011;60402;48.082;11.628;2023-05-07T04:14:14;7.35;;;3.53;;
72408;SDS011;60402;48.082;11.628;2023-05-07T04:17:00;5.25;;;3.03;;
72408;SDS011;60402;48.082;11.628;2023-05-07T04:19:45;6.88;;;3.28;;
72408;SDS011;60402;48.082;11.628;2023-05-07T04:22:32;6.80;;;3.33;;
72408;SDS011;60402;48.082;11.628;2023-05-07T04:25:17;6.63;;;3.40;;
72408;SDS011;60402;48.082;11.628;2023-05-07T04:28:03;7.97;;;3.63;;
72408;SDS011;60402;48.082;11.628;2023-05-07T04:30:49;5.57;;;2.80;;
72408;SDS011;60402;48.082;11.628;2023-05-07T04:33:35;7.15;;;3.55;;
72408;SDS011;60402;48.082;11.628;2023-05-07T04:36:20;7.35;;;3.30;;
72408;SDS011;60402;48.082;11.628;2023-05-07T04:39:06;5.97;;;3.20;;
72408;SDS011;60402;48.082;11.628;2023-05-07T04:41:52;5.88;;;3.35;;
72408;SDS011;60402;48.082;11.628;2023-05-07T04:44:38;6.03;;;3.08;;
72408;SDS011;60402;48.082;11.628;2023-05-07T04:47:23;6.05;;;3.65;;
72408;SDS011;60402;48.082;11.628;2023-05-07T04:50:09;6.03;;;3.20;;
72408;SDS011;60402;48.082;11.628;2023-05-07T04:52:55;6.38;;;3.13;;
72408;SDS011;60402;48.082;11.628;2023-05-07T04:55:41;6.35;;;3.65;;
72408;SDS011;60402;48.082;11.628;2023-05-07T04:58:27;5.65;;;3.10;;
72408;SDS011;60402;48.082;11.628;2023-05-07T05:01:16;5.40;;;2.90;;
72408;SDS011;60402;48.082;11.628;2023-05-07T05:04:02;6.28;;;3.25;;
72408;SDS011;60402;48.082;11.628;2023-05-07T05:06:47;5.85;;;3.50;;
72408;SDS011;60402;48.082;11.628;2023-05-07T05:09:33;5.50;;;2.90;;
72408;SDS011;60402;48.082;11.628;2023-05-07T05:12:19;5.07;;;3.22;;
72408;SDS011;60402;48.082;11.628;2023-05-07T05:15:05;6.57;;;3.28;;
72408;SDS011;60402;48.082;11.628;2023-05-07T05:17:51;6.13;;;3.17;;
72408;SDS011;60402;48.082;11.628;2023-05-07T05:20:37;5.70;;;3.40;;
72408;SDS011;60402;48.082;11.628;2023-05-07T05:23:22;10.73;;;3.13;;
72408;SDS011;60402;48.082;11.628;2023-05-07T05:26:08;5.72;;;3.13;;
72408;SDS011;60402;48.082;11.628;2023-05-07T05:28:53;5.47;;;3.25;;
72408;SDS011;60402;48.082;11.628;2023-05-07T05:31:39;6.43;;;3.25;;
72408;SDS011;60402;48.082;11.628;2023-05-07T05:34:26;5.50;;;3.33;;
72408;SDS011;60402;48.082;11.628;2023-05-07T05:37:12;5.95;;;3.47;;
72408;SDS011;60402;48.082;11.628;2023-05-07T05:39:58;5.95;;;3.67;;
72408;SDS011;60402;48.082;11.628;2023-05-07T05:42:44;6.57;;;3.53;;
72408;SDS011;60402;48.082;11.628;2023-05-07T05:45:29;7.32;;;3.95;;
72408;SDS011;60402;48.082;11.628;2023-05-07T05:48:15;6.07;;;3.60;;
72408;SDS011;60402;48.082;11.628;2023-05-07T05:51:01;5.97;;;3.17;;
72408;SDS011;60402;48.082;11.628;2023-05-07T05:53:46;5.65;;;3.67;;
72408;SDS011;60402;48.082;11.628;2023-05-07T05:56:32;9.57;;;3.58;;
72408;SDS011;60402;48.082;11.628;2023-05-07T05:59:18;7.43;;;3.78;;
72408;SDS011;60402;48.082;11.628;2023-05-07T06:05:46;6.60;;;3.53;;
72408;SDS011;60402;48.082;11.628;2023-05-07T06:08:32;6.65;;;3.30;;
72408;SDS011;60402;48.082;11.628;2023-05-07T06:11:17;5.13;;;3.10;;
72408;SDS011;60402;48.082;11.628;2023-05-07T06:14:03;5.47;;;2.80;;
72408;SDS011;60402;48.082;11.628;2023-05-07T06:16:49;5.80;;;3.03;;
72408;SDS011;60402;48.082;11.628;2023-05-07T06:19:34;5.22;;;2.95;;
72408;SDS011;60402;48.082;11.628;2023-05-07T06:22:20;5.82;;;3.17;;
72408;SDS011;60402;48.082;11.628;2023-05-07T06:25:06;6.10;;;3.40;;
72408;SDS011;60402;48.082;11.628;2023-05-07T06:27:52;5.00;;;3.15;;
72408;SDS011;60402;48.082;11.628;2023-05-07T06:30:38;6.32;;;3.00;;
72408;SDS011;60402;48.082;11.628;2023-05-07T06:33:23;5.35;;;2.95;;
72408;SDS011;60402;48.082;11.628;2023-05-07T06:36:09;6.30;;;2.78;;
72408;SDS011;60402;48.082;11.628;2023-05-07T06:38:55;5.57;;;2.90;;
72408;SDS011;60402;48.082;11.628;2023-05-07T06:41:41;5.45;;;2.70;;
72408;SDS011;60402;48.082;11.628;2023-05-07T06:44:26;5.13;;;3.00;;
72408;SDS011;60402;48.082;11.628;2023-05-07T06:47:12;7.43;;;2.85;;
72408;SDS011;60402;48.082;11.628;2023-05-07T06:49:58;4.95;;;2.80;;
72408;SDS011;60402;48.082;11.628;2023-05-07T06:52:44;4.88;;;2.55;;
72408;SDS011;60402;48.082;11.628;2023-05-07T06:55:30;5.40;;;2.53;;
72408;SDS011;60402;48.082;11.628;2023-05-07T06:58:15;4.22;;;2.40;;
72408;SDS011;60402;48.082;11.628;2023-05-07T07:01:01;4.80;;;2.22;;
72408;SDS011;60402;48.082;11.628;2023-05-07T07:03:47;4.82;;;2.13;;
72408;SDS011;60402;48.082;11.628;2023-05-07T07:06:32;4.22;;;2.03;;
72408;SDS011;60402;48.082;11.628;2023-05-07T07:09:18;4.82;;;2.22;;
72408;SDS011;60402;48.082;11.628;2023-05-07T07:12:04;6.00;;;2.30;;
72408;SDS011;60402;48.082;11.628;2023-05-07T07:14:50;3.63;;;2.20;;
72408;SDS011;60402;48.082;11.628;2023-05-07T07:17:35;3.13;;;1.80;;
72408;SDS011;60402;48.082;11.628;2023-05-07T07:20:21;5.75;;;3.17;;
72408;SDS011;60402;48.082;11.628;2023-05-07T07:23:07;4.22;;;1.80;;
72408;SDS011;60402;48.082;11.628;2023-05-07T07:25:52;4.20;;;2.10;;
72408;SDS011;60402;48.082;11.628;2023-05-07T07:28:42;3.72;;;2.00;;
72408;SDS011;60402;48.082;11.628;2023-05-07T07:31:30;3.92;;;1.88;;
72408;SDS011;60402;48.082;11.628;2023-05-07T07:34:16;3.88;;;1.85;;
72408;SDS011;60402;48.082;11.628;2023-05-07T07:37:02;4.75;;;1.92;;
72408;SDS011;60402;48.082;11.628;2023-05-07T07:39:50;3.05;;;1.73;;
72408;SDS011;60402;48.082;11.628;2023-05-07T07:42:36;5.07;;;1.75;;
72408;SDS011;60402;48.082;11.628;2023-05-07T07:45:22;3.22;;;1.67;;
72408;SDS011;60402;48.082;11.628;2023-05-07T07:48:07;3.38;;;1.73;;
72408;SDS011;60402;48.082;11.628;2023-05-07T07:50:53;4.55;;;1.90;;
72408;SDS011;60402;48.082;11.628;2023-05-07T07:53:39;5.03;;;1.80;;
72408;SDS011;60402;48.082;11.628;2023-05-07T07:56:26;2.47;;;1.63;;
72408;SDS011;60402;48.082;11.628;2023-05-07T07:59:12;4.22;;;1.90;;
72408;SDS011;60402;48.082;11.628;2023-05-07T08:01:59;3.42;;;1.80;;
72408;SDS011;60402;48.082;11.628;2023-05-07T08:04:45;3.75;;;1.70;;
72408;SDS011;60402;48.082;11.628;2023-05-07T08:07:31;3.03;;;1.77;;
72408;SDS011;60402;48.082;11.628;2023-05-07T08:10:16;4.32;;;2.08;;
72408;SDS011;60402;48.082;11.628;2023-05-07T08:13:06;4.13;;;2.00;;
72408;SDS011;60402;48.082;11.628;2023-05-07T08:15:52;3.03;;;1.60;;
72408;SDS011;60402;48.082;11.628;2023-05-07T08:18:37;3.83;;;1.73;;
72408;SDS011;60402;48.082;11.628;2023-05-07T08:21:23;2.92;;;1.67;;
72408;SDS011;60402;48.082;11.628;2023-05-07T08:24:09;5.75;;;2.70;;
72408;SDS011;60402;48.082;11.628;2023-05-07T08:26:55;3.83;;;2.00;;
72408;SDS011;60402;48.082;11.628;2023-05-07T08:29:40;3.83;;;1.90;;
72408;SDS011;60402;48.082;11.628;2023-05-07T08:32:26;5.35;;;2.30;;
72408;SDS011;60402;48.082;11.628;2023-05-07T08:35:12;7.03;;;2.95;;
72408;SDS011;60402;48.082;11.628;2023-05-07T08:37:58;4.55;;;2.30;;
72408;SDS011;60402;48.082;11.628;2023-05-07T08:40:44;4.30;;;2.10;;
72408;SDS011;60402;48.082;11.628;2023-05-07T08:43:30;4.80;;;2.10;;
72408;SDS011;60402;48.082;11.628;2023-05-07T08:46:21;5.38;;;2.03;;
72408;SDS011;60402;48.082;11.628;2023-05-07T08:49:07;3.97;;;1.90;;
72408;SDS011;60402;48.082;11.628;2023-05-07T08:51:53;4.57;;;2.20;;
72408;SDS011;60402;48.082;11.628;2023-05-07T08:54:38;4.25;;;2.13;;
72408;SDS011;60402;48.082;11.628;2023-05-07T08:57:25;4.63;;;2.03;;
72408;SDS011;60402;48.082;11.628;2023-05-07T09:00:11;5.10;;;2.33;;
72408;SDS011;60402;48.082;11.628;2023-05-07T09:02:57;3.78;;;1.95;;
72408;SDS011;60402;48.082;11.628;2023-05-07T09:05:43;4.80;;;2.00;;
72408;SDS011;60402;48.082;11.628;2023-05-07T09:08:29;3.78;;;2.10;;
72408;SDS011;60402;48.082;11.628;2023-05-07T09:11:15;5.80;;;2.15;;
72408;SDS011;60402;48.082;11.628;2023-05-07T09:14:01;3.47;;;1.90;;
72408;SDS011;60402;48.082;11.628;2023-05-07T09:16:47;6.22;;;2.30;;
72408;SDS011;60402;48.082;11.628;2023-05-07T09:19:33;5.75;;;2.25;;
72408;SDS011;60402;48.082;11.628;2023-05-07T09:22:19;3.25;;;1.92;;
72408;SDS011;60402;48.082;11.628;2023-05-07T09:25:07;3.97;;;2.10;;
72408;SDS011;60402;48.082;11.628;2023-05-07T09:27:54;5.40;;;2.70;;
72408;SDS011;60402;48.082;11.628;2023-05-07T09:30:40;3.10;;;1.70;;
72408;SDS011;60402;48.082;11.628;2023-05-07T09:33:26;5.22;;;1.70;;
72408;SDS011;60402;48.082;11.628;2023-05-07T09:36:12;3.50;;;1.90;;
72408;SDS011;60402;48.082;11.628;2023-05-07T09:38:59;3.13;;;1.77;;
72408;SDS011;60402;48.082;11.628;2023-05-07T09:41:46;3.88;;;1.90;;
72408;SDS011;60402;48.082;11.628;2023-05-07T09:44:33;4.25;;;1.80;;
72408;SDS011;60402;48.082;11.628;2023-05-07T09:47:19;3.65;;;2.13;;
72408;SDS011;60402;48.082;11.628;2023-05-07T09:50:08;2.63;;;1.70;;
72408;SDS011;60402;48.082;11.628;2023-05-07T09:52:55;3.70;;;1.52;;
72408;SDS011;60402;48.082;11.628;2023-05-07T09:55:41;3.42;;;1.70;;
72408;SDS011;60402;48.082;11.628;2023-05-07T09:58:27;5.45;;;2.38;;
72408;SDS011;60402;48.082;11.628;2023-05-07T10:01:13;4.68;;;1.92;;
72408;SDS011;60402;48.082;11.628;2023-05-07T10:04:01;3.35;;;1.88;;
72408;SDS011;60402;48.082;11.628;2023-05-07T10:06:48;4.00;;;2.10;;
72408;SDS011;60402;48.082;11.628;2023-05-07T10:09:34;2.85;;;1.90;;
72408;SDS011;60402;48.082;11.628;2023-05-07T10:12:23;4.10;;;1.80;;
72408;SDS011;60402;48.082;11.628;2023-05-07T10:15:09;3.45;;;1.85;;
72408;SDS011;60402;48.082;11.628;2023-05-07T10:17:56;4.28;;;2.05;;
72408;SDS011;60402;48.082;11.628;2023-05-07T10:20:42;4.35;;;2.05;;
72408;SDS011;60402;48.082;11.628;2023-05-07T10:23:30;5.35;;;1.75;;
72408;SDS011;60402;48.082;11.628;2023-05-07T10:26:17;5.30;;;2.30;;
72408;SDS011;60402;48.082;11.628;2023-05-07T10:29:07;4.53;;;1.77;;
72408;SDS011;60402;48.082;11.628;2023-05-07T10:35:29;4.78;;;2.15;;
72408;SDS011;60402;48.082;11.628;2023-05-07T10:38:18;3.58;;;1.98;;
72408;SDS011;60402;48.082;11.628;2023-05-07T10:41:04;5.97;;;2.35;;
72408;SDS011;60402;48.082;11.628;2023-05-07T10:43:50;4.93;;;2.17;;
72408;SDS011;60402;48.082;11.628;2023-05-07T10:46:36;3.85;;;1.88;;
72408;SDS011;60402;48.082;11.628;2023-05-07T10:49:22;4.18;;;2.10;;
72408;SDS011;60402;48.082;11.628;2023-05-07T10:52:11;5.10;;;2.30;;
72408;SDS011;60402;48.082;11.628;2023-05-07T10:58:24;3.35;;;1.77;;
72408;SDS011;60402;48.082;11.628;2023-05-07T11:01:09;4.72;;;2.03;;
72408;SDS011;60402;48.082;11.628;2023-05-07T11:04:15;2.90;;;1.80;;
72408;SDS011;60402;48.082;11.628;2023-05-07T11:09:56;2.90;;;1.70;;
72408;SDS011;60402;48.082;11.628;2023-05-07T11:15:36;3.83;;;1.55;;
72408;SDS011;60402;48.082;11.628;2023-05-07T11:18:23;3.67;;;1.90;;
72408;SDS011;60402;48.082;11.628;2023-05-07T11:21:09;3.85;;;1.92;;
72408;SDS011;60402;48.082;11.628;2023-05-07T11:23:55;5.13;;;1.70;;
72408;SDS011;60402;48.082;11.628;2023-05-07T11:26:45;3.03;;;1.70;;
72408;SDS011;60402;48.082;11.628;2023-05-07T11:29:33;3.40;;;1.80;;
72408;SDS011;60402;48.082;11.628;2023-05-07T11:32:22;2.90;;;1.50;;
72408;SDS011;60402;48.082;11.628;2023-05-07T11:35:09;4.75;;;1.90;;
72408;SDS011;60402;48.082;11.628;2023-05-07T11:37:57;3.65;;;1.90;;
72408;SDS011;60402;48.082;11.628;2023-05-07T11:40:52;3.72;;;2.00;;
72408;SDS011;60402;48.082;11.628;2023-05-07T11:43:52;5.38;;;1.90;;
72408;SDS011;60402;48.082;11.628;2023-05-07T11:46:42;8.32;;;3.70;;
72408;SDS011;60402;48.082;11.628;2023-05-07T11:49:28;3.88;;;1.90;;
72408;SDS011;60402;48.082;11.628;2023-05-07T11:52:15;3.92;;;2.00;;
72408;SDS011;60402;48.082;11.628;2023-05-07T11:55:02;4.25;;;2.38;;
72408;SDS011;60402;48.082;11.628;2023-05-07T11:57:49;4.05;;;1.90;;
72408;SDS011;60402;48.082;11.628;2023-05-07T12:00:35;6.28;;;3.10;;
72408;SDS011;60402;48.082;11.628;2023-05-07T12:03:21;8.52;;;4.85;;
72408;SDS011;60402;48.082;11.628;2023-05-07T12:06:06;6.00;;;2.80;;
72408;SDS011;60402;48.082;11.628;2023-05-07T12:08:52;3.72;;;2.13;;
72408;SDS011;60402;48.082;11.628;2023-05-07T12:11:38;4.45;;;2.15;;
72408;SDS011;60402;48.082;11.628;2023-05-07T12:14:27;7.28;;;2.72;;
72408;SDS011;60402;48.082;11.628;2023-05-07T12:17:14;4.82;;;2.30;;
72408;SDS011;60402;48.082;11.628;2023-05-07T12:20:01;5.82;;;2.60;;
72408;SDS011;60402;48.082;11.628;2023-05-07T12:22:47;5.35;;;2.30;;
72408;SDS011;60402;48.082;11.628;2023-05-07T12:25:35;4.00;;;2.47;;
72408;SDS011;60402;48.082;11.628;2023-05-07T12:28:22;4.65;;;2.47;;
72408;SDS011;60402;48.082;11.628;2023-05-07T12:31:07;5.80;;;2.42;;
72408;SDS011;60402;48.082;11.628;2023-05-07T12:33:53;4.95;;;2.50;;
72408;SDS011;60402;48.082;11.628;2023-05-07T12:36:39;4.30;;;2.40;;
72408;SDS011;60402;48.082;11.628;2023-05-07T12:39:25;6.40;;;3.00;;
72408;SDS011;60402;48.082;11.628;2023-05-07T12:42:14;5.75;;;3.00;;
72408;SDS011;60402;48.082;11.628;2023-05-07T12:45:06;6.00;;;2.47;;
72408;SDS011;60402;48.082;11.628;2023-05-07T12:47:53;5.28;;;2.60;;
72408;SDS011;60402;48.082;11.628;2023-05-07T12:50:38;4.43;;;2.78;;
72408;SDS011;60402;48.082;11.628;2023-05-07T12:53:25;5.68;;;2.55;;
72408;SDS011;60402;48.082;11.628;2023-05-07T12:56:12;5.30;;;2.80;;
72408;SDS011;60402;48.082;11.628;2023-05-07T12:59:01;4.20;;;2.60;;
72408;SDS011;60402;48.082;11.628;2023-05-07T13:01:46;4.43;;;2.60;;
72408;SDS011;60402;48.082;11.628;2023-05-07T13:04:32;7.45;;;3.05;;
72408;SDS011;60402;48.082;11.628;2023-05-07T13:07:18;4.38;;;2.50;;
72408;SDS011;60402;48.082;11.628;2023-05-07T13:10:04;4.55;;;2.70;;
72408;SDS011;60402;48.082;11.628;2023-05-07T13:12:50;4.82;;;2.80;;
72408;SDS011;60402;48.082;11.628;2023-05-07T13:15:36;4.40;;;2.33;;
72408;SDS011;60402;48.082;11.628;2023-05-07T13:18:24;6.38;;;2.40;;
72408;SDS011;60402;48.082;11.628;2023-05-07T13:21:11;5.13;;;2.70;;
72408;SDS011;60402;48.082;11.628;2023-05-07T13:23:58;4.85;;;2.40;;
72408;SDS011;60402;48.082;11.628;2023-05-07T13:26:44;5.88;;;2.47;;
72408;SDS011;60402;48.082;11.628;2023-05-07T13:29:30;5.13;;;2.70;;
72408;SDS011;60402;48.082;11.628;2023-05-07T13:32:15;4.70;;;2.40;;
72408;SDS011;60402;48.082;11.628;2023-05-07T13:35:01;5.18;;;2.22;;
72408;SDS011;60402;48.082;11.628;2023-05-07T13:37:47;6.07;;;2.67;;
72408;SDS011;60402;48.082;11.628;2023-05-07T13:40:34;5.70;;;2.58;;
72408;SDS011;60402;48.082;11.628;2023-05-07T13:43:19;4.32;;;2.25;;
72408;SDS011;60402;48.082;11.628;2023-05-07T13:46:05;5.20;;;2.67;;
72408;SDS011;60402;48.082;11.628;2023-05-07T13:48:51;5.75;;;2.38;;
72408;SDS011;60402;48.082;11.628;2023-05-07T13:51:36;3.78;;;2.00;;
72408;SDS011;60402;48.082;11.628;2023-05-07T13:54:22;5.82;;;2.30;;
72408;SDS011;60402;48.082;11.628;2023-05-07T13:57:08;4.22;;;2.20;;
72408;SDS011;60402;48.082;11.628;2023-05-07T13:59:53;4.30;;;2.00;;
72408;SDS011;60402;48.082;11.628;2023-05-07T14:02:40;5.45;;;2.22;;
72408;SDS011;60402;48.082;11.628;2023-05-07T14:05:26;3.95;;;1.98;;
72408;SDS011;60402;48.082;11.628;2023-05-07T14:08:13;3.33;;;2.00;;
72408;SDS011;60402;48.082;11.628;2023-05-07T14:10:59;3.67;;;2.10;;
72408;SDS011;60402;48.082;11.628;2023-05-07T14:13:45;4.82;;;2.30;;
72408;SDS011;60402;48.082;11.628;2023-05-07T14:16:30;3.88;;;2.08;;
72408;SDS011;60402;48.082;11.628;2023-05-07T14:19:16;3.83;;;2.20;;
72408;SDS011;60402;48.082;11.628;2023-05-07T14:22:02;4.75;;;2.03;;
72408;SDS011;60402;48.082;11.628;2023-05-07T14:24:47;4.95;;;2.28;;
72408;SDS011;60402;48.082;11.628;2023-05-07T14:27:33;4.50;;;2.10;;
72408;SDS011;60402;48.082;11.628;2023-05-07T14:30:19;4.47;;;1.95;;
72408;SDS011;60402;48.082;11.628;2023-05-07T14:33:05;3.83;;;2.15;;
72408;SDS011;60402;48.082;11.628;2023-05-07T14:35:50;4.78;;;2.42;;
72408;SDS011;60402;48.082;11.628;2023-05-07T14:38:36;4.03;;;2.20;;
72408;SDS011;60402;48.082;11.628;2023-05-07T14:41:22;4.50;;;2.00;;
72408;SDS011;60402;48.082;11.628;2023-05-07T14:44:08;4.30;;;2.17;;
72408;SDS011;60402;48.082;11.628;2023-05-07T14:46:53;3.53;;;2.03;;
72408;SDS011;60402;48.082;11.628;2023-05-07T14:49:39;4.88;;;2.00;;
72408;SDS011;60402;48.082;11.628;2023-05-07T14:52:26;4.40;;;2.03;;
72408;SDS011;60402;48.082;11.628;2023-05-07T14:55:12;3.40;;;2.00;;
72408;SDS011;60402;48.082;11.628;2023-05-07T14:57:57;3.28;;;1.80;;
72408;SDS011;60402;48.082;11.628;2023-05-07T15:00:43;3.35;;;1.83;;
72408;SDS011;60402;48.082;11.628;2023-05-07T15:03:28;3.80;;;2.03;;
72408;SDS011;60402;48.082;11.628;2023-05-07T15:06:14;5.05;;;2.08;;
72408;SDS011;60402;48.082;11.628;2023-05-07T15:09:01;4.22;;;1.90;;
72408;SDS011;60402;48.082;11.628;2023-05-07T15:11:46;4.25;;;2.10;;
72408;SDS011;60402;48.082;11.628;2023-05-07T15:14:32;4.47;;;2.33;;
72408;SDS011;60402;48.082;11.628;2023-05-07T15:17:17;4.32;;;2.30;;
72408;SDS011;60402;48.082;11.628;2023-05-07T15:20:03;3.67;;;2.03;;
72408;SDS011;60402;48.082;11.628;2023-05-07T15:22:50;5.57;;;2.60;;
72408;SDS011;60402;48.082;11.628;2023-05-07T15:25:36;3.45;;;2.10;;
72408;SDS011;60402;48.082;11.628;2023-05-07T15:28:21;3.67;;;2.13;;
72408;SDS011;60402;48.082;11.628;2023-05-07T15:31:07;3.60;;;1.90;;
72408;SDS011;60402;48.082;11.628;2023-05-07T15:33:53;3.55;;;1.88;;
72408;SDS011;60402;48.082;11.628;2023-05-07T15:36:39;3.67;;;2.20;;
72408;SDS011;60402;48.082;11.628;2023-05-07T15:39:25;3.42;;;2.00;;
72408;SDS011;60402;48.082;11.628;2023-05-07T15:42:10;4.93;;;2.10;;
72408;SDS011;60402;48.082;11.628;2023-05-07T15:44:56;4.25;;;1.90;;
72408;SDS011;60402;48.082;11.628;2023-05-07T15:47:42;4.35;;;2.10;;
72408;SDS011;60402;48.082;11.628;2023-05-07T15:50:28;4.75;;;2.10;;
72408;SDS011;60402;48.082;11.628;2023-05-07T15:53:14;3.58;;;1.75;;
72408;SDS011;60402;48.082;11.628;2023-05-07T15:55:59;5.13;;;2.42;;
72408;SDS011;60402;48.082;11.628;2023-05-07T15:58:45;4.72;;;2.42;;
72408;SDS011;60402;48.082;11.628;2023-05-07T16:01:32;4.38;;;2.17;;
72408;SDS011;60402;48.082;11.628;2023-05-07T16:04:18;5.03;;;2.13;;
72408;SDS011;60402;48.082;11.628;2023-05-07T16:07:03;4.05;;;1.95;;
72408;SDS011;60402;48.082;11.628;2023-05-07T16:09:49;3.35;;;1.88;;
72408;SDS011;60402;48.082;11.628;2023-05-07T16:12:35;4.00;;;1.90;;
72408;SDS011;60402;48.082;11.628;2023-05-07T16:15:21;4.60;;;2.00;;
72408;SDS011;60402;48.082;11.628;2023-05-07T16:18:06;4.22;;;2.05;;
72408;SDS011;60402;48.082;11.628;2023-05-07T16:20:52;3.45;;;1.98;;
72408;SDS011;60402;48.082;11.628;2023-05-07T16:23:38;5.45;;;2.08;;
72408;SDS011;60402;48.082;11.628;2023-05-07T16:26:24;5.28;;;2.30;;
72408;SDS011;60402;48.082;11.628;2023-05-07T16:29:10;6.22;;;1.98;;
72408;SDS011;60402;48.082;11.628;2023-05-07T16:31:56;4.30;;;2.17;;
72408;SDS011;60402;48.082;11.628;2023-05-07T16:34:42;3.67;;;1.88;;
72408;SDS011;60402;48.082;11.628;2023-05-07T16:37:28;4.07;;;2.03;;
72408;SDS011;60402;48.082;11.628;2023-05-07T16:40:14;4.07;;;1.90;;
72408;SDS011;60402;48.082;11.628;2023-05-07T16:42:59;4.63;;;2.00;;